sensor_id;sensor_type;location;lat;lon;timestamp;temperature;humidity
5346;DHT22;2695;49.444;11.054;2023-05-10T00:00:19;17.30;99.90
5346;DHT22;2695;49.444;11.054;2023-05-10T00:02:50;17.30;99.90
5346;DHT22;2695;49.444;11.054;2023-05-10T00:05:18;17.20;99.90
5346;DHT22;2695;49.444;11.054;2023-05-10T00:07:49;17.20;99.90
5346;DHT22;2695;49.444;11.054;2023-05-10T00:10:17;17.10;99.90
5346;DHT22;2695;49.444;11.054;2023-05-10T00:12:45;17.10;99.90
5346;DHT22;2695;49.444;11.054;2023-05-10T00:15:13;17.00;99.90
5346;DHT22;2695;49.444;11.054;2023-05-10T00:17:41;16.90;99.90
5346;DHT22;2695;49.444;11.054;2023-05-10T00:20:11;16.80;99.90
5346;DHT22;2695;49.444;11.054;2023-05-10T00:22:40;16.70;99.90
5346;DHT22;2695;49.444;11.054;2023-05-10T00:25:08;16.60;99.90
5346;DHT22;2695;49.444;11.054;2023-05-10T00:27:36;16.50;99.90
5346;DHT22;2695;49.444;11.054;2023-05-10T00:30:06;16.40;99.90
5346;DHT22;2695;49.444;11.054;2023-05-10T00:32:34;16.40;99.90
5346;DHT22;2695;49.444;11.054;2023-05-10T00:35:02;16.30;99.90
5346;DHT22;2695;49.444;11.054;2023-05-10T00:37:31;16.30;99.90
5346;DHT22;2695;49.444;11.054;2023-05-10T00:39:59;16.20;99.90
5346;DHT22;2695;49.444;11.054;2023-05-10T00:42:27;16.20;99.90
5346;DHT22;2695;49.444;11.054;2023-05-10T00:44:55;16.20;99.90
5346;DHT22;2695;49.444;11.054;2023-05-10T00:47:24;16.10;99.90
5346;DHT22;2695;49.444;11.054;2023-05-10T00:49:52;16.10;99.90
5346;DHT22;2695;49.444;11.054;2023-05-10T00:52:20;16.10;99.90
5346;DHT22;2695;49.444;11.054;2023-05-10T00:54:52;16.10;99.90
5346;DHT22;2695;49.444;11.054;2023-05-10T00:57:20;16.00;99.90
5346;DHT22;2695;49.444;11.054;2023-05-10T00:59:48;16.00;99.90
5346;DHT22;2695;49.444;11.054;2023-05-10T01:02:16;15.90;99.90
5346;DHT22;2695;49.444;11.054;2023-05-10T01:04:44;15.90;99.90
5346;DHT22;2695;49.444;11.054;2023-05-10T01:07:13;15.80;99.90
5346;DHT22;2695;49.444;11.054;2023-05-10T01:09:40;15.60;99.90
5346;DHT22;2695;49.444;11.054;2023-05-10T01:12:10;15.50;99.90
5346;DHT22;2695;49.444;11.054;2023-05-10T01:14:38;15.50;99.90
5346;DHT22;2695;49.444;11.054;2023-05-10T01:17:07;15.40;99.90
5346;DHT22;2695;49.444;11.054;2023-05-10T01:19:37;15.40;99.90
5346;DHT22;2695;49.444;11.054;2023-05-10T01:22:13;15.30;99.90
5346;DHT22;2695;49.444;11.054;2023-05-10T01:25:04;15.30;99.90
5346;DHT22;2695;49.444;11.054;2023-05-10T01:28:00;15.20;99.90
5346;DHT22;2695;49.444;11.054;2023-05-10T01:30:56;15.30;99.90
5346;DHT22;2695;49.444;11.054;2023-05-10T01:33:35;15.20;99.90
5346;DHT22;2695;49.444;11.054;2023-05-10T01:36:09;15.30;99.90
5346;DHT22;2695;49.444;11.054;2023-05-10T01:38:44;15.30;99.90
5346;DHT22;2695;49.444;11.054;2023-05-10T01:41:19;15.30;99.90
5346;DHT22;2695;49.444;11.054;2023-05-10T01:43:57;15.20;99.90
5346;DHT22;2695;49.444;11.054;2023-05-10T01:46:28;15.20;99.90
5346;DHT22;2695;49.444;11.054;2023-05-10T01:49:00;15.20;99.90
5346;DHT22;2695;49.444;11.054;2023-05-10T01:51:35;15.20;99.90
5346;DHT22;2695;49.444;11.054;2023-05-10T01:54:06;15.30;99.90
5346;DHT22;2695;49.444;11.054;2023-05-10T01:56:35;15.20;99.90
5346;DHT22;2695;49.444;11.054;2023-05-10T01:59:11;15.30;99.90
5346;DHT22;2695;49.444;11.054;2023-05-10T02:01:41;15.30;99.90
5346;DHT22;2695;49.444;11.054;2023-05-10T02:04:15;15.30;99.90
5346;DHT22;2695;49.444;11.054;2023-05-10T02:06:46;15.40;99.90
5346;DHT22;2695;49.444;11.054;2023-05-10T02:09:23;15.40;99.90
5346;DHT22;2695;49.444;11.054;2023-05-10T02:11:54;15.30;99.90
5346;DHT22;2695;49.444;11.054;2023-05-10T02:14:23;15.30;99.90
5346;DHT22;2695;49.444;11.054;2023-05-10T02:16:54;15.30;99.90
5346;DHT22;2695;49.444;11.054;2023-05-10T02:19:24;15.30;99.90
5346;DHT22;2695;49.444;11.054;2023-05-10T02:21:53;15.30;99.90
5346;DHT22;2695;49.444;11.054;2023-05-10T02:24:24;15.20;99.90
5346;DHT22;2695;49.444;11.054;2023-05-10T02:26:54;15.20;99.90
5346;DHT22;2695;49.444;11.054;2023-05-10T02:29:23;15.20;99.90
5346;DHT22;2695;49.444;11.054;2023-05-10T02:31:54;15.30;99.90
5346;DHT22;2695;49.444;11.054;2023-05-10T02:34:26;15.30;99.90
5346;DHT22;2695;49.444;11.054;2023-05-10T02:36:55;15.40;99.90
5346;DHT22;2695;49.444;11.054;2023-05-10T02:39:24;15.40;99.90
5346;DHT22;2695;49.444;11.054;2023-05-10T02:41:56;15.50;99.90
5346;DHT22;2695;49.444;11.054;2023-05-10T02:44:27;15.50;99.90
5346;DHT22;2695;49.444;11.054;2023-05-10T02:46:57;15.50;99.90
5346;DHT22;2695;49.444;11.054;2023-05-10T02:49:27;15.50;99.90
5346;DHT22;2695;49.444;11.054;2023-05-10T02:52:00;15.50;99.90
5346;DHT22;2695;49.444;11.054;2023-05-10T02:54:33;15.60;99.90
5346;DHT22;2695;49.444;11.054;2023-05-10T02:57:04;15.60;99.90
5346;DHT22;2695;49.444;11.054;2023-05-10T02:59:32;15.60;99.90
5346;DHT22;2695;49.444;11.054;2023-05-10T03:02:00;15.60;99.90
5346;DHT22;2695;49.444;11.054;2023-05-10T03:04:30;15.60;99.90
5346;DHT22;2695;49.444;11.054;2023-05-10T03:06:58;15.60;99.90
5346;DHT22;2695;49.444;11.054;2023-05-10T03:09:41;15.60;99.90
5346;DHT22;2695;49.444;11.054;2023-05-10T03:12:13;15.50;99.90
5346;DHT22;2695;49.444;11.054;2023-05-10T03:14:48;15.50;99.90
5346;DHT22;2695;49.444;11.054;2023-05-10T03:17:25;15.50;99.90
5346;DHT22;2695;49.444;11.054;2023-05-10T03:20:03;15.50;99.90
5346;DHT22;2695;49.444;11.054;2023-05-10T03:22:34;15.60;99.90
5346;DHT22;2695;49.444;11.054;2023-05-10T03:25:06;15.60;99.90
5346;DHT22;2695;49.444;11.054;2023-05-10T03:27:36;15.60;99.90
5346;DHT22;2695;49.444;11.054;2023-05-10T03:30:08;15.50;99.90
5346;DHT22;2695;49.444;11.054;2023-05-10T03:32:36;15.60;99.90
5346;DHT22;2695;49.444;11.054;2023-05-10T03:35:08;15.50;99.90
5346;DHT22;2695;49.444;11.054;2023-05-10T03:37:36;15.50;99.90
5346;DHT22;2695;49.444;11.054;2023-05-10T03:40:07;15.50;99.90
5346;DHT22;2695;49.444;11.054;2023-05-10T03:42:36;15.50;99.90
5346;DHT22;2695;49.444;11.054;2023-05-10T03:45:04;15.50;99.90
5346;DHT22;2695;49.444;11.054;2023-05-10T03:47:32;15.50;99.90
5346;DHT22;2695;49.444;11.054;2023-05-10T03:50:00;15.50;99.90
5346;DHT22;2695;49.444;11.054;2023-05-10T03:52:30;15.50;99.90
5346;DHT22;2695;49.444;11.054;2023-05-10T03:54:58;15.50;99.90
5346;DHT22;2695;49.444;11.054;2023-05-10T03:57:26;15.50;99.90
5346;DHT22;2695;49.444;11.054;2023-05-10T03:59:54;15.50;99.90
5346;DHT22;2695;49.444;11.054;2023-05-10T04:02:22;15.50;99.90
5346;DHT22;2695;49.444;11.054;2023-05-10T04:04:50;15.60;99.90
5346;DHT22;2695;49.444;11.054;2023-05-10T04:07:18;15.60;99.90
5346;DHT22;2695;49.444;11.054;2023-05-10T04:09:48;15.60;99.90
5346;DHT22;2695;49.444;11.054;2023-05-10T04:12:16;15.60;99.90
5346;DHT22;2695;49.444;11.054;2023-05-10T04:14:44;15.60;99.90
5346;DHT22;2695;49.444;11.054;2023-05-10T04:17:12;15.60;99.90
5346;DHT22;2695;49.444;11.054;2023-05-10T04:19:40;15.60;99.90
5346;DHT22;2695;49.444;11.054;2023-05-10T04:22:08;15.60;99.90
5346;DHT22;2695;49.444;11.054;2023-05-10T04:24:36;15.70;99.90
5346;DHT22;2695;49.444;11.054;2023-05-10T04:27:05;15.70;99.90
5346;DHT22;2695;49.444;11.054;2023-05-10T04:29:33;15.70;99.90
5346;DHT22;2695;49.444;11.054;2023-05-10T04:32:01;15.70;99.90
5346;DHT22;2695;49.444;11.054;2023-05-10T04:34:30;15.80;99.90
5346;DHT22;2695;49.444;11.054;2023-05-10T04:37:00;15.70;99.90
5346;DHT22;2695;49.444;11.054;2023-05-10T04:39:28;15.80;99.90
5346;DHT22;2695;49.444;11.054;2023-05-10T04:41:56;15.70;99.90
5346;DHT22;2695;49.444;11.054;2023-05-10T04:44:26;15.70;99.90
5346;DHT22;2695;49.444;11.054;2023-05-10T04:46:53;15.70;99.90
5346;DHT22;2695;49.444;11.054;2023-05-10T04:49:21;15.80;99.90
5346;DHT22;2695;49.444;11.054;2023-05-10T04:51:50;15.80;99.90
5346;DHT22;2695;49.444;11.054;2023-05-10T04:54:18;15.70;99.90
5346;DHT22;2695;49.444;11.054;2023-05-10T04:56:46;15.70;99.90
5346;DHT22;2695;49.444;11.054;2023-05-10T04:59:14;15.80;99.90
5346;DHT22;2695;49.444;11.054;2023-05-10T05:01:43;15.80;99.90
5346;DHT22;2695;49.444;11.054;2023-05-10T05:04:11;15.90;99.90
5346;DHT22;2695;49.444;11.054;2023-05-10T05:06:39;15.90;99.90
5346;DHT22;2695;49.444;11.054;2023-05-10T05:09:07;15.90;99.90
5346;DHT22;2695;49.444;11.054;2023-05-10T05:11:37;16.00;99.90
5346;DHT22;2695;49.444;11.054;2023-05-10T05:14:06;16.00;99.90
5346;DHT22;2695;49.444;11.054;2023-05-10T05:16:35;16.10;99.90
5346;DHT22;2695;49.444;11.054;2023-05-10T05:19:04;16.20;99.90
5346;DHT22;2695;49.444;11.054;2023-05-10T05:21:32;16.30;99.90
5346;DHT22;2695;49.444;11.054;2023-05-10T05:24:00;16.40;99.90
5346;DHT22;2695;49.444;11.054;2023-05-10T05:26:28;16.50;99.90
5346;DHT22;2695;49.444;11.054;2023-05-10T05:28:56;16.50;99.90
5346;DHT22;2695;49.444;11.054;2023-05-10T05:31:24;16.50;99.90
5346;DHT22;2695;49.444;11.054;2023-05-10T05:33:52;16.50;99.90
5346;DHT22;2695;49.444;11.054;2023-05-10T05:36:22;16.60;99.90
5346;DHT22;2695;49.444;11.054;2023-05-10T05:38:50;16.60;99.90
5346;DHT22;2695;49.444;11.054;2023-05-10T05:41:17;16.70;99.90
5346;DHT22;2695;49.444;11.054;2023-05-10T05:43:46;16.80;99.90
5346;DHT22;2695;49.444;11.054;2023-05-10T05:46:14;16.80;99.90
5346;DHT22;2695;49.444;11.054;2023-05-10T05:52:31;16.80;99.90
5346;DHT22;2695;49.444;11.054;2023-05-10T05:54:59;16.90;99.90
5346;DHT22;2695;49.444;11.054;2023-05-10T05:57:27;17.00;99.90
5346;DHT22;2695;49.444;11.054;2023-05-10T06:00:10;17.00;99.90
5346;DHT22;2695;49.444;11.054;2023-05-10T06:02:38;17.10;99.90
5346;DHT22;2695;49.444;11.054;2023-05-10T06:05:07;17.10;99.90
5346;DHT22;2695;49.444;11.054;2023-05-10T06:07:37;17.20;99.90
5346;DHT22;2695;49.444;11.054;2023-05-10T06:10:06;17.30;99.90
5346;DHT22;2695;49.444;11.054;2023-05-10T06:12:34;17.40;99.90
5346;DHT22;2695;49.444;11.054;2023-05-10T06:15:03;17.50;99.90
5346;DHT22;2695;49.444;11.054;2023-05-10T06:17:31;17.60;99.90
5346;DHT22;2695;49.444;11.054;2023-05-10T06:20:00;17.80;99.90
5346;DHT22;2695;49.444;11.054;2023-05-10T06:22:28;17.90;99.90
5346;DHT22;2695;49.444;11.054;2023-05-10T06:24:57;18.00;99.90
5346;DHT22;2695;49.444;11.054;2023-05-10T06:27:26;18.00;99.90
5346;DHT22;2695;49.444;11.054;2023-05-10T06:29:54;18.10;99.90
5346;DHT22;2695;49.444;11.054;2023-05-10T06:32:31;18.10;99.90
5346;DHT22;2695;49.444;11.054;2023-05-10T06:35:00;18.30;99.90
5346;DHT22;2695;49.444;11.054;2023-05-10T06:37:28;18.50;99.90
5346;DHT22;2695;49.444;11.054;2023-05-10T06:39:57;18.80;99.90
5346;DHT22;2695;49.444;11.054;2023-05-10T06:42:25;19.10;99.90
5346;DHT22;2695;49.444;11.054;2023-05-10T06:44:54;19.40;99.90
5346;DHT22;2695;49.444;11.054;2023-05-10T06:47:22;19.50;99.90
5346;DHT22;2695;49.444;11.054;2023-05-10T06:49:50;19.90;99.90
5346;DHT22;2695;49.444;11.054;2023-05-10T06:52:18;20.50;99.90
5346;DHT22;2695;49.444;11.054;2023-05-10T06:54:46;21.00;99.90
5346;DHT22;2695;49.444;11.054;2023-05-10T06:57:15;21.40;99.90
5346;DHT22;2695;49.444;11.054;2023-05-10T06:59:57;21.80;99.90
5346;DHT22;2695;49.444;11.054;2023-05-10T07:02:26;22.20;99.90
5346;DHT22;2695;49.444;11.054;2023-05-10T07:04:54;22.00;99.90
5346;DHT22;2695;49.444;11.054;2023-05-10T07:07:25;21.80;99.90
5346;DHT22;2695;49.444;11.054;2023-05-10T07:09:56;21.60;99.90
5346;DHT22;2695;49.444;11.054;2023-05-10T07:12:26;21.40;99.90
5346;DHT22;2695;49.444;11.054;2023-05-10T07:14:57;21.30;99.90
5346;DHT22;2695;49.444;11.054;2023-05-10T07:17:26;21.00;99.90
5346;DHT22;2695;49.444;11.054;2023-05-10T07:19:54;20.90;99.90
5346;DHT22;2695;49.444;11.054;2023-05-10T07:22:22;20.60;99.90
5346;DHT22;2695;49.444;11.054;2023-05-10T07:24:50;20.50;99.90
5346;DHT22;2695;49.444;11.054;2023-05-10T07:27:18;20.30;99.90
5346;DHT22;2695;49.444;11.054;2023-05-10T07:29:48;20.20;99.90
5346;DHT22;2695;49.444;11.054;2023-05-10T07:32:16;19.90;99.90
5346;DHT22;2695;49.444;11.054;2023-05-10T07:34:44;19.50;99.90
5346;DHT22;2695;49.444;11.054;2023-05-10T07:37:13;19.30;99.90
5346;DHT22;2695;49.444;11.054;2023-05-10T07:39:41;19.20;99.90
5346;DHT22;2695;49.444;11.054;2023-05-10T07:42:09;19.00;99.90
5346;DHT22;2695;49.444;11.054;2023-05-10T07:44:37;18.90;99.90
5346;DHT22;2695;49.444;11.054;2023-05-10T07:47:07;18.80;99.90
5346;DHT22;2695;49.444;11.054;2023-05-10T07:49:35;18.70;99.90
5346;DHT22;2695;49.444;11.054;2023-05-10T07:52:07;18.70;99.90
5346;DHT22;2695;49.444;11.054;2023-05-10T07:54:36;18.50;99.90
5346;DHT22;2695;49.444;11.054;2023-05-10T07:57:04;18.50;99.90
5346;DHT22;2695;49.444;11.054;2023-05-10T07:59:33;18.50;99.90
5346;DHT22;2695;49.444;11.054;2023-05-10T08:02:01;18.40;99.90
5346;DHT22;2695;49.444;11.054;2023-05-10T08:04:30;18.40;99.90
5346;DHT22;2695;49.444;11.054;2023-05-10T08:06:59;18.60;99.90
5346;DHT22;2695;49.444;11.054;2023-05-10T08:09:27;18.80;99.90
5346;DHT22;2695;49.444;11.054;2023-05-10T08:11:55;19.20;99.90
5346;DHT22;2695;49.444;11.054;2023-05-10T08:14:23;19.40;99.90
5346;DHT22;2695;49.444;11.054;2023-05-10T08:16:51;19.50;99.90
5346;DHT22;2695;49.444;11.054;2023-05-10T08:19:19;19.60;99.90
5346;DHT22;2695;49.444;11.054;2023-05-10T08:21:49;19.80;99.90
5346;DHT22;2695;49.444;11.054;2023-05-10T08:24:18;20.00;99.90
5346;DHT22;2695;49.444;11.054;2023-05-10T08:26:46;20.30;99.90
5346;DHT22;2695;49.444;11.054;2023-05-10T08:29:14;20.50;99.90
5346;DHT22;2695;49.444;11.054;2023-05-10T08:31:42;20.70;99.90
5346;DHT22;2695;49.444;11.054;2023-05-10T08:34:10;20.90;99.90
5346;DHT22;2695;49.444;11.054;2023-05-10T08:36:38;21.10;99.90
5346;DHT22;2695;49.444;11.054;2023-05-10T08:39:08;21.30;99.90
5346;DHT22;2695;49.444;11.054;2023-05-10T08:41:58;21.50;99.90
5346;DHT22;2695;49.444;11.054;2023-05-10T08:44:29;21.80;99.90
5346;DHT22;2695;49.444;11.054;2023-05-10T08:46:57;22.40;99.90
5346;DHT22;2695;49.444;11.054;2023-05-10T08:49:27;22.80;99.90
5346;DHT22;2695;49.444;11.054;2023-05-10T08:52:02;22.80;99.90
5346;DHT22;2695;49.444;11.054;2023-05-10T08:54:34;22.80;99.90
5346;DHT22;2695;49.444;11.054;2023-05-10T08:57:02;22.40;99.90
5346;DHT22;2695;49.444;11.054;2023-05-10T08:59:30;22.00;99.90
5346;DHT22;2695;49.444;11.054;2023-05-10T09:02:00;21.20;99.90
5346;DHT22;2695;49.444;11.054;2023-05-10T09:04:29;20.30;99.90
5346;DHT22;2695;49.444;11.054;2023-05-10T09:06:58;19.50;99.90
5346;DHT22;2695;49.444;11.054;2023-05-10T09:09:27;18.80;99.90
5346;DHT22;2695;49.444;11.054;2023-05-10T09:11:57;18.30;99.90
5346;DHT22;2695;49.444;11.054;2023-05-10T09:14:26;17.90;99.90
5346;DHT22;2695;49.444;11.054;2023-05-10T09:16:54;17.50;99.90
5346;DHT22;2695;49.444;11.054;2023-05-10T09:19:23;17.40;99.90
5346;DHT22;2695;49.444;11.054;2023-05-10T09:21:51;17.30;99.90
5346;DHT22;2695;49.444;11.054;2023-05-10T09:24:25;17.20;99.90
5346;DHT22;2695;49.444;11.054;2023-05-10T09:26:53;17.40;99.90
5346;DHT22;2695;49.444;11.054;2023-05-10T09:29:23;17.70;99.90
5346;DHT22;2695;49.444;11.054;2023-05-10T09:31:52;18.10;99.90
5346;DHT22;2695;49.444;11.054;2023-05-10T09:34:29;18.60;99.90
5346;DHT22;2695;49.444;11.054;2023-05-10T09:37:01;19.50;99.90
5346;DHT22;2695;49.444;11.054;2023-05-10T09:39:33;20.70;99.90
5346;DHT22;2695;49.444;11.054;2023-05-10T09:42:03;21.90;99.90
5346;DHT22;2695;49.444;11.054;2023-05-10T09:44:34;23.40;99.90
5346;DHT22;2695;49.444;11.054;2023-05-10T09:47:03;24.80;99.90
5346;DHT22;2695;49.444;11.054;2023-05-10T09:49:31;24.80;99.90
5346;DHT22;2695;49.444;11.054;2023-05-10T09:52:01;24.40;99.90
5346;DHT22;2695;49.444;11.054;2023-05-10T09:54:30;24.10;99.90
5346;DHT22;2695;49.444;11.054;2023-05-10T09:56:59;24.30;99.90
5346;DHT22;2695;49.444;11.054;2023-05-10T09:59:28;24.50;99.90
5346;DHT22;2695;49.444;11.054;2023-05-10T10:01:59;24.60;99.90
5346;DHT22;2695;49.444;11.054;2023-05-10T10:04:28;25.20;99.90
5346;DHT22;2695;49.444;11.054;2023-05-10T10:07:01;25.70;99.90
5346;DHT22;2695;49.444;11.054;2023-05-10T10:09:30;26.40;98.00
5346;DHT22;2695;49.444;11.054;2023-05-10T10:11:59;26.90;96.80
5346;DHT22;2695;49.444;11.054;2023-05-10T10:14:28;27.70;93.80
5346;DHT22;2695;49.444;11.054;2023-05-10T10:17:00;28.10;90.70
5346;DHT22;2695;49.444;11.054;2023-05-10T10:19:33;27.70;89.10
5346;DHT22;2695;49.444;11.054;2023-05-10T10:22:02;27.10;90.60
5346;DHT22;2695;49.444;11.054;2023-05-10T10:24:31;26.80;90.40
5346;DHT22;2695;49.444;11.054;2023-05-10T10:27:04;27.40;85.90
5346;DHT22;2695;49.444;11.054;2023-05-10T10:29:39;27.70;85.80
5346;DHT22;2695;49.444;11.054;2023-05-10T10:32:19;27.40;89.00
5346;DHT22;2695;49.444;11.054;2023-05-10T10:34:50;28.00;85.10
5346;DHT22;2695;49.444;11.054;2023-05-10T10:37:18;28.70;81.10
5346;DHT22;2695;49.444;11.054;2023-05-10T10:39:48;28.70;75.20
5346;DHT22;2695;49.444;11.054;2023-05-10T10:45:16;27.20;76.70
5346;DHT22;2695;49.444;11.054;2023-05-10T10:47:46;25.60;81.10
5346;DHT22;2695;49.444;11.054;2023-05-10T10:50:15;24.40;85.30
5346;DHT22;2695;49.444;11.054;2023-05-10T10:52:44;23.40;88.30
5346;DHT22;2695;49.444;11.054;2023-05-10T10:55:17;22.60;90.20
5346;DHT22;2695;49.444;11.054;2023-05-10T10:57:48;21.80;91.90
5346;DHT22;2695;49.444;11.054;2023-05-10T11:00:28;21.20;92.30
5346;DHT22;2695;49.444;11.054;2023-05-10T11:03:03;20.80;92.80
5346;DHT22;2695;49.444;11.054;2023-05-10T11:05:43;20.30;93.40
5346;DHT22;2695;49.444;11.054;2023-05-10T11:08:17;20.10;94.40
5346;DHT22;2695;49.444;11.054;2023-05-10T11:11:01;20.00;95.10
5346;DHT22;2695;49.444;11.054;2023-05-10T11:13:38;20.10;96.20
5346;DHT22;2695;49.444;11.054;2023-05-10T11:16:18;20.20;95.90
5346;DHT22;2695;49.444;11.054;2023-05-10T11:19:12;20.50;96.00
5346;DHT22;2695;49.444;11.054;2023-05-10T11:21:49;20.60;95.80
5346;DHT22;2695;49.444;11.054;2023-05-10T11:24:20;20.60;95.10
5346;DHT22;2695;49.444;11.054;2023-05-10T11:26:52;20.70;96.20
5346;DHT22;2695;49.444;11.054;2023-05-10T11:29:39;21.00;96.30
5346;DHT22;2695;49.444;11.054;2023-05-10T11:32:08;21.50;95.20
5346;DHT22;2695;49.444;11.054;2023-05-10T11:34:38;21.80;95.20
5346;DHT22;2695;49.444;11.054;2023-05-10T11:37:09;22.20;94.10
5346;DHT22;2695;49.444;11.054;2023-05-10T11:39:38;22.40;93.70
5346;DHT22;2695;49.444;11.054;2023-05-10T11:42:07;22.40;93.60
5346;DHT22;2695;49.444;11.054;2023-05-10T11:44:38;22.40;93.40
5346;DHT22;2695;49.444;11.054;2023-05-10T11:47:07;22.40;93.40
5346;DHT22;2695;49.444;11.054;2023-05-10T11:49:42;22.50;94.10
5346;DHT22;2695;49.444;11.054;2023-05-10T11:52:11;22.60;93.70
5346;DHT22;2695;49.444;11.054;2023-05-10T11:54:45;22.60;93.70
5346;DHT22;2695;49.444;11.054;2023-05-10T11:57:15;22.60;93.60
5346;DHT22;2695;49.444;11.054;2023-05-10T11:59:45;22.40;94.30
5346;DHT22;2695;49.444;11.054;2023-05-10T12:02:17;21.90;94.50
5346;DHT22;2695;49.444;11.054;2023-05-10T12:04:47;21.60;95.30
5346;DHT22;2695;49.444;11.054;2023-05-10T12:07:17;21.30;95.80
5346;DHT22;2695;49.444;11.054;2023-05-10T12:10:05;21.20;96.10
5346;DHT22;2695;49.444;11.054;2023-05-10T12:12:38;21.20;96.40
5346;DHT22;2695;49.444;11.054;2023-05-10T12:15:17;21.10;96.50
5346;DHT22;2695;49.444;11.054;2023-05-10T12:17:47;21.00;96.60
5346;DHT22;2695;49.444;11.054;2023-05-10T12:20:19;20.90;96.70
5346;DHT22;2695;49.444;11.054;2023-05-10T12:22:51;20.70;96.70
5346;DHT22;2695;49.444;11.054;2023-05-10T12:25:22;20.50;97.20
5346;DHT22;2695;49.444;11.054;2023-05-10T12:27:52;20.50;97.00
5346;DHT22;2695;49.444;11.054;2023-05-10T12:30:22;20.50;96.80
5346;DHT22;2695;49.444;11.054;2023-05-10T12:32:52;20.50;96.80
5346;DHT22;2695;49.444;11.054;2023-05-10T12:35:23;20.70;96.90
5346;DHT22;2695;49.444;11.054;2023-05-10T12:37:51;20.90;95.90
5346;DHT22;2695;49.444;11.054;2023-05-10T12:40:20;21.00;95.10
5346;DHT22;2695;49.444;11.054;2023-05-10T12:42:50;21.10;94.40
5346;DHT22;2695;49.444;11.054;2023-05-10T12:45:19;21.20;93.90
5346;DHT22;2695;49.444;11.054;2023-05-10T12:47:47;21.30;93.40
5346;DHT22;2695;49.444;11.054;2023-05-10T12:50:16;21.40;93.60
5346;DHT22;2695;49.444;11.054;2023-05-10T12:52:46;21.50;93.80
5346;DHT22;2695;49.444;11.054;2023-05-10T12:55:14;21.50;93.90
5346;DHT22;2695;49.444;11.054;2023-05-10T12:57:43;21.30;94.20
5346;DHT22;2695;49.444;11.054;2023-05-10T13:00:12;21.30;95.00
5346;DHT22;2695;49.444;11.054;2023-05-10T13:02:41;21.20;94.90
5346;DHT22;2695;49.444;11.054;2023-05-10T13:05:09;21.30;95.10
5346;DHT22;2695;49.444;11.054;2023-05-10T13:07:40;21.20;95.10
5346;DHT22;2695;49.444;11.054;2023-05-10T13:10:11;21.40;95.00
5346;DHT22;2695;49.444;11.054;2023-05-10T13:12:40;21.20;95.40
5346;DHT22;2695;49.444;11.054;2023-05-10T13:15:09;21.20;95.70
5346;DHT22;2695;49.444;11.054;2023-05-10T13:17:37;21.40;95.60
5346;DHT22;2695;49.444;11.054;2023-05-10T13:20:07;21.50;95.10
5346;DHT22;2695;49.444;11.054;2023-05-10T13:22:36;21.70;95.20
5346;DHT22;2695;49.444;11.054;2023-05-10T13:25:06;21.80;94.80
5346;DHT22;2695;49.444;11.054;2023-05-10T13:27:37;21.80;94.50
5346;DHT22;2695;49.444;11.054;2023-05-10T13:30:06;21.80;94.50
5346;DHT22;2695;49.444;11.054;2023-05-10T13:32:38;21.90;95.10
5346;DHT22;2695;49.444;11.054;2023-05-10T13:35:20;21.90;95.20
5346;DHT22;2695;49.444;11.054;2023-05-10T13:37:48;21.80;96.20
5346;DHT22;2695;49.444;11.054;2023-05-10T13:40:16;21.70;95.90
5346;DHT22;2695;49.444;11.054;2023-05-10T13:42:46;21.50;95.60
5346;DHT22;2695;49.444;11.054;2023-05-10T13:45:14;21.50;96.30
5346;DHT22;2695;49.444;11.054;2023-05-10T13:47:43;21.60;96.60
5346;DHT22;2695;49.444;11.054;2023-05-10T13:50:11;21.80;96.40
5346;DHT22;2695;49.444;11.054;2023-05-10T13:52:39;22.10;96.30
5346;DHT22;2695;49.444;11.054;2023-05-10T13:55:07;22.30;95.50
5346;DHT22;2695;49.444;11.054;2023-05-10T13:57:35;22.50;95.00
5346;DHT22;2695;49.444;11.054;2023-05-10T14:00:09;22.50;94.40
5346;DHT22;2695;49.444;11.054;2023-05-10T14:02:37;22.70;93.40
5346;DHT22;2695;49.444;11.054;2023-05-10T14:05:06;22.80;90.80
5346;DHT22;2695;49.444;11.054;2023-05-10T14:07:34;22.70;90.70
5346;DHT22;2695;49.444;11.054;2023-05-10T14:10:02;22.60;90.90
5346;DHT22;2695;49.444;11.054;2023-05-10T14:12:30;22.60;91.00
5346;DHT22;2695;49.444;11.054;2023-05-10T14:14:58;22.50;92.10
5346;DHT22;2695;49.444;11.054;2023-05-10T14:17:27;22.50;91.70
5346;DHT22;2695;49.444;11.054;2023-05-10T14:19:55;22.30;91.70
5346;DHT22;2695;49.444;11.054;2023-05-10T14:22:23;22.20;92.40
5346;DHT22;2695;49.444;11.054;2023-05-10T14:24:51;22.00;92.50
5346;DHT22;2695;49.444;11.054;2023-05-10T14:27:19;21.80;93.70
5346;DHT22;2695;49.444;11.054;2023-05-10T14:29:47;21.80;93.00
5346;DHT22;2695;49.444;11.054;2023-05-10T14:32:15;21.70;93.10
5346;DHT22;2695;49.444;11.054;2023-05-10T14:34:45;21.70;94.20
5346;DHT22;2695;49.444;11.054;2023-05-10T14:37:13;21.80;93.30
5346;DHT22;2695;49.444;11.054;2023-05-10T14:39:41;21.80;93.50
5346;DHT22;2695;49.444;11.054;2023-05-10T14:42:10;21.80;94.00
5346;DHT22;2695;49.444;11.054;2023-05-10T14:44:38;21.80;94.00
5346;DHT22;2695;49.444;11.054;2023-05-10T14:47:06;21.70;94.40
5346;DHT22;2695;49.444;11.054;2023-05-10T14:49:37;21.70;95.30
5346;DHT22;2695;49.444;11.054;2023-05-10T14:52:06;21.80;94.70
5346;DHT22;2695;49.444;11.054;2023-05-10T14:54:34;21.60;94.60
5346;DHT22;2695;49.444;11.054;2023-05-10T14:57:02;21.60;96.00
5346;DHT22;2695;49.444;11.054;2023-05-10T14:59:30;21.60;96.00
5346;DHT22;2695;49.444;11.054;2023-05-10T15:01:59;21.80;95.60
5346;DHT22;2695;49.444;11.054;2023-05-10T15:04:27;21.90;95.00
5346;DHT22;2695;49.444;11.054;2023-05-10T15:06:56;21.90;94.60
5346;DHT22;2695;49.444;11.054;2023-05-10T15:09:27;21.80;94.50
5346;DHT22;2695;49.444;11.054;2023-05-10T15:11:55;21.80;94.90
5346;DHT22;2695;49.444;11.054;2023-05-10T15:14:23;21.30;95.70
5346;DHT22;2695;49.444;11.054;2023-05-10T15:16:51;21.20;96.10
5346;DHT22;2695;49.444;11.054;2023-05-10T15:19:32;21.00;96.50
5346;DHT22;2695;49.444;11.054;2023-05-10T15:22:01;20.80;97.00
5346;DHT22;2695;49.444;11.054;2023-05-10T15:24:30;20.60;94.70
5346;DHT22;2695;49.444;11.054;2023-05-10T15:26:58;20.40;93.90
5346;DHT22;2695;49.444;11.054;2023-05-10T15:29:26;20.20;93.70
5346;DHT22;2695;49.444;11.054;2023-05-10T15:31:54;20.00;94.20
5346;DHT22;2695;49.444;11.054;2023-05-10T15:34:23;20.10;94.00
5346;DHT22;2695;49.444;11.054;2023-05-10T15:36:51;20.20;92.50
5346;DHT22;2695;49.444;11.054;2023-05-10T15:39:19;20.10;92.70
5346;DHT22;2695;49.444;11.054;2023-05-10T15:41:48;20.10;92.60
5346;DHT22;2695;49.444;11.054;2023-05-10T15:44:16;20.20;92.30
5346;DHT22;2695;49.444;11.054;2023-05-10T15:46:45;20.30;92.40
5346;DHT22;2695;49.444;11.054;2023-05-10T15:49:13;20.30;92.80
5346;DHT22;2695;49.444;11.054;2023-05-10T15:51:41;20.30;92.10
5346;DHT22;2695;49.444;11.054;2023-05-10T15:54:09;20.20;92.50
5346;DHT22;2695;49.444;11.054;2023-05-10T15:56:37;20.10;92.70
5346;DHT22;2695;49.444;11.054;2023-05-10T15:59:06;20.10;93.00
5346;DHT22;2695;49.444;11.054;2023-05-10T16:01:36;19.90;93.10
5346;DHT22;2695;49.444;11.054;2023-05-10T16:04:04;19.90;93.30
5346;DHT22;2695;49.444;11.054;2023-05-10T16:06:33;19.90;93.10
5346;DHT22;2695;49.444;11.054;2023-05-10T16:09:01;20.00;93.50